Las Placitas, New Mexico
Current Conditions -  °F | °C
As of 9:15 AM on Tuesday 21 Oct 2014 (Local Time) from KLAM Reporting Station
Overcast Overcast  
Wind Chill: 46°   Ceiling: 2800
Heat Index: 49°   Visibility: 10mi
Dew Point: 47°   Wind: 6mph
Humidity: 96%   Direction: 250°WSW
Pressure: 30.25"   Gusts: NA
Location:  36.325°N, 106.282°W
Report Text: KLAM 211515Z AUTO 25005KT 10SM OVC028 09/09 A3025 RMK AO2 P0001 T00920086
Loading
Personal Weather Stations






























Interactive Weather Map
Tropical Storm Tracking
New forecast layout! Learn more

10-Day Weather Forecast

Advertisements
Track Severe Weather on mobile